sensor_id;sensor_type;location;lat;lon;timestamp;temperature;humidity
13711;DHT22;6927;51.256;9.410;2023-01-16T00:00:39;4.00;99.90
13711;DHT22;6927;51.256;9.410;2023-01-16T00:03:04;4.00;99.90
13711;DHT22;6927;51.256;9.410;2023-01-16T00:05:30;4.00;99.90
13711;DHT22;6927;51.256;9.410;2023-01-16T00:07:55;4.00;99.90
13711;DHT22;6927;51.256;9.410;2023-01-16T00:10:25;4.00;99.90
13711;DHT22;6927;51.256;9.410;2023-01-16T00:12:50;4.10;99.90
13711;DHT22;6927;51.256;9.410;2023-01-16T00:15:16;4.20;99.90
13711;DHT22;6927;51.256;9.410;2023-01-16T00:17:41;4.20;99.90
13711;DHT22;6927;51.256;9.410;2023-01-16T00:20:10;4.10;99.90
13711;DHT22;6927;51.256;9.410;2023-01-16T00:22:36;4.20;99.90
13711;DHT22;6927;51.256;9.410;2023-01-16T00:25:04;4.30;99.90
13711;DHT22;6927;51.256;9.410;2023-01-16T00:27:33;4.30;99.90
13711;DHT22;6927;51.256;9.410;2023-01-16T00:30:05;4.30;99.90
13711;DHT22;6927;51.256;9.410;2023-01-16T00:32:34;4.20;99.90
13711;DHT22;6927;51.256;9.410;2023-01-16T00:35:06;4.20;99.90
13711;DHT22;6927;51.256;9.410;2023-01-16T00:37:38;4.10;99.90
13711;DHT22;6927;51.256;9.410;2023-01-16T00:40:04;4.10;99.90
13711;DHT22;6927;51.256;9.410;2023-01-16T00:42:35;4.10;99.90
13711;DHT22;6927;51.256;9.410;2023-01-16T00:45:07;4.00;99.90
13711;DHT22;6927;51.256;9.410;2023-01-16T00:47:36;4.00;99.90
13711;DHT22;6927;51.256;9.410;2023-01-16T00:50:03;4.10;99.90
13711;DHT22;6927;51.256;9.410;2023-01-16T00:52:28;4.00;99.90
13711;DHT22;6927;51.256;9.410;2023-01-16T00:54:59;4.00;99.90
13711;DHT22;6927;51.256;9.410;2023-01-16T00:57:25;4.10;99.90
13711;DHT22;6927;51.256;9.410;2023-01-16T00:59:53;4.10;99.90
13711;DHT22;6927;51.256;9.410;2023-01-16T01:02:22;4.00;99.90
13711;DHT22;6927;51.256;9.410;2023-01-16T01:04:52;4.00;99.90
13711;DHT22;6927;51.256;9.410;2023-01-16T01:07:18;4.00;99.90
13711;DHT22;6927;51.256;9.410;2023-01-16T01:09:44;4.00;99.90
13711;DHT22;6927;51.256;9.410;2023-01-16T01:12:09;3.90;99.90
13711;DHT22;6927;51.256;9.410;2023-01-16T01:14:35;3.90;99.90
13711;DHT22;6927;51.256;9.410;2023-01-16T01:17:01;3.80;99.90
13711;DHT22;6927;51.256;9.410;2023-01-16T01:19:26;3.80;99.90
13711;DHT22;6927;51.256;9.410;2023-01-16T01:21:52;3.80;99.90
13711;DHT22;6927;51.256;9.410;2023-01-16T01:24:17;3.80;99.90
13711;DHT22;6927;51.256;9.410;2023-01-16T01:26:43;3.80;99.90
13711;DHT22;6927;51.256;9.410;2023-01-16T01:29:09;3.80;99.90
13711;DHT22;6927;51.256;9.410;2023-01-16T01:31:37;3.80;99.90
13711;DHT22;6927;51.256;9.410;2023-01-16T01:34:03;3.80;99.90
13711;DHT22;6927;51.256;9.410;2023-01-16T01:36:28;3.80;99.90
13711;DHT22;6927;51.256;9.410;2023-01-16T01:38:54;3.80;99.90
13711;DHT22;6927;51.256;9.410;2023-01-16T01:41:20;3.80;99.90
13711;DHT22;6927;51.256;9.410;2023-01-16T01:43:48;3.80;99.90
13711;DHT22;6927;51.256;9.410;2023-01-16T01:49:21;3.80;99.90
13711;DHT22;6927;51.256;9.410;2023-01-16T01:51:48;3.90;99.90
13711;DHT22;6927;51.256;9.410;2023-01-16T01:54:20;3.90;99.90
13711;DHT22;6927;51.256;9.410;2023-01-16T01:56:55;3.90;99.90
13711;DHT22;6927;51.256;9.410;2023-01-16T01:59:29;4.00;99.90
13711;DHT22;6927;51.256;9.410;2023-01-16T02:01:57;4.00;99.90
13711;DHT22;6927;51.256;9.410;2023-01-16T02:04:27;4.00;99.90
13711;DHT22;6927;51.256;9.410;2023-01-16T02:06:59;4.00;99.90
13711;DHT22;6927;51.256;9.410;2023-01-16T02:09:26;4.00;99.90
13711;DHT22;6927;51.256;9.410;2023-01-16T02:12:14;4.00;99.90
13711;DHT22;6927;51.256;9.410;2023-01-16T02:14:42;4.10;99.90
13711;DHT22;6927;51.256;9.410;2023-01-16T02:17:14;4.10;99.90
13711;DHT22;6927;51.256;9.410;2023-01-16T02:26:31;4.10;99.90
13711;DHT22;6927;51.256;9.410;2023-01-16T02:28:47;4.20;99.90
13711;DHT22;6927;51.256;9.410;2023-01-16T02:31:31;4.20;99.90
13711;DHT22;6927;51.256;9.410;2023-01-16T02:42:22;4.10;99.90
13711;DHT22;6927;51.256;9.410;2023-01-16T02:45:28;4.10;99.90
13711;DHT22;6927;51.256;9.410;2023-01-16T02:48:17;4.20;99.90
13711;DHT22;6927;51.256;9.410;2023-01-16T02:50:55;4.10;99.90
13711;DHT22;6927;51.256;9.410;2023-01-16T02:56:19;4.20;99.90
13711;DHT22;6927;51.256;9.410;2023-01-16T02:58:48;4.20;99.90
13711;DHT22;6927;51.256;9.410;2023-01-16T03:01:18;4.20;99.90
13711;DHT22;6927;51.256;9.410;2023-01-16T03:18:06;4.30;99.90
13711;DHT22;6927;51.256;9.410;2023-01-16T03:20:54;4.40;99.90
13711;DHT22;6927;51.256;9.410;2023-01-16T03:23:51;4.40;99.90
13711;DHT22;6927;51.256;9.410;2023-01-16T03:26:32;4.40;99.90
13711;DHT22;6927;51.256;9.410;2023-01-16T03:31:58;4.40;99.90
13711;DHT22;6927;51.256;9.410;2023-01-16T03:38:10;4.30;99.90
13711;DHT22;6927;51.256;9.410;2023-01-16T03:40:12;4.30;99.90
13711;DHT22;6927;51.256;9.410;2023-01-16T03:42:50;4.20;99.90
13711;DHT22;6927;51.256;9.410;2023-01-16T03:46:03;4.20;99.90
13711;DHT22;6927;51.256;9.410;2023-01-16T03:51:23;4.10;99.90
13711;DHT22;6927;51.256;9.410;2023-01-16T03:54:11;4.00;99.90
13711;DHT22;6927;51.256;9.410;2023-01-16T03:56:50;4.00;99.90
13711;DHT22;6927;51.256;9.410;2023-01-16T03:59:17;4.00;99.90
13711;DHT22;6927;51.256;9.410;2023-01-16T04:02:03;4.00;99.90
13711;DHT22;6927;51.256;9.410;2023-01-16T04:04:43;4.00;99.90
13711;DHT22;6927;51.256;9.410;2023-01-16T04:07:38;4.00;99.90
13711;DHT22;6927;51.256;9.410;2023-01-16T04:10:09;4.00;99.90
13711;DHT22;6927;51.256;9.410;2023-01-16T04:12:37;4.10;99.90
13711;DHT22;6927;51.256;9.410;2023-01-16T04:15:07;4.10;99.90
13711;DHT22;6927;51.256;9.410;2023-01-16T04:17:34;4.10;99.90
13711;DHT22;6927;51.256;9.410;2023-01-16T04:20:04;4.10;99.90
13711;DHT22;6927;51.256;9.410;2023-01-16T04:22:33;4.10;99.90
13711;DHT22;6927;51.256;9.410;2023-01-16T04:25:01;4.10;99.90
13711;DHT22;6927;51.256;9.410;2023-01-16T04:27:27;4.10;99.90
13711;DHT22;6927;51.256;9.410;2023-01-16T04:29:53;4.10;99.90
13711;DHT22;6927;51.256;9.410;2023-01-16T04:32:19;4.10;99.90
13711;DHT22;6927;51.256;9.410;2023-01-16T04:34:44;4.20;99.90
13711;DHT22;6927;51.256;9.410;2023-01-16T04:37:13;4.20;99.90
13711;DHT22;6927;51.256;9.410;2023-01-16T04:39:40;4.20;99.90
13711;DHT22;6927;51.256;9.410;2023-01-16T04:42:10;4.20;99.90
13711;DHT22;6927;51.256;9.410;2023-01-16T04:44:36;4.20;99.90
13711;DHT22;6927;51.256;9.410;2023-01-16T04:47:02;4.20;99.90
13711;DHT22;6927;51.256;9.410;2023-01-16T04:49:28;4.20;99.90
13711;DHT22;6927;51.256;9.410;2023-01-16T04:51:54;4.20;99.90
13711;DHT22;6927;51.256;9.410;2023-01-16T04:54:24;4.30;99.90
13711;DHT22;6927;51.256;9.410;2023-01-16T04:56:50;4.10;99.90
13711;DHT22;6927;51.256;9.410;2023-01-16T04:59:15;4.10;99.90
13711;DHT22;6927;51.256;9.410;2023-01-16T05:01:45;4.10;99.90
13711;DHT22;6927;51.256;9.410;2023-01-16T05:04:13;4.10;99.90
13711;DHT22;6927;51.256;9.410;2023-01-16T05:06:41;4.10;99.90
13711;DHT22;6927;51.256;9.410;2023-01-16T05:09:10;4.10;99.90
13711;DHT22;6927;51.256;9.410;2023-01-16T05:11:39;4.10;99.90
13711;DHT22;6927;51.256;9.410;2023-01-16T05:14:05;4.10;99.90
13711;DHT22;6927;51.256;9.410;2023-01-16T05:16:37;4.10;99.90
13711;DHT22;6927;51.256;9.410;2023-01-16T05:19:09;4.20;99.90
13711;DHT22;6927;51.256;9.410;2023-01-16T05:22:03;4.10;99.90
13711;DHT22;6927;51.256;9.410;2023-01-16T05:24:29;4.20;99.90
13711;DHT22;6927;51.256;9.410;2023-01-16T05:26:58;4.20;99.90
13711;DHT22;6927;51.256;9.410;2023-01-16T05:29:23;4.20;99.90
13711;DHT22;6927;51.256;9.410;2023-01-16T05:31:52;4.30;99.90
13711;DHT22;6927;51.256;9.410;2023-01-16T05:34:29;4.30;99.90
13711;DHT22;6927;51.256;9.410;2023-01-16T05:36:55;4.30;99.90
13711;DHT22;6927;51.256;9.410;2023-01-16T05:39:20;4.30;99.90
13711;DHT22;6927;51.256;9.410;2023-01-16T05:41:46;4.30;99.90
13711;DHT22;6927;51.256;9.410;2023-01-16T05:44:11;4.30;99.90
13711;DHT22;6927;51.256;9.410;2023-01-16T05:46:55;4.40;99.90
13711;DHT22;6927;51.256;9.410;2023-01-16T05:49:20;4.40;99.90
13711;DHT22;6927;51.256;9.410;2023-01-16T05:51:52;4.40;99.90
13711;DHT22;6927;51.256;9.410;2023-01-16T05:54:20;4.40;99.90
13711;DHT22;6927;51.256;9.410;2023-01-16T05:56:49;4.40;99.90
13711;DHT22;6927;51.256;9.410;2023-01-16T05:59:21;4.40;99.90
13711;DHT22;6927;51.256;9.410;2023-01-16T06:01:46;4.40;99.90
13711;DHT22;6927;51.256;9.410;2023-01-16T06:04:17;4.40;99.90
13711;DHT22;6927;51.256;9.410;2023-01-16T06:06:47;4.40;99.90
13711;DHT22;6927;51.256;9.410;2023-01-16T06:09:15;4.30;99.90
13711;DHT22;6927;51.256;9.410;2023-01-16T06:11:43;4.30;99.90
13711;DHT22;6927;51.256;9.410;2023-01-16T06:14:14;4.30;99.90
13711;DHT22;6927;51.256;9.410;2023-01-16T06:16:40;4.30;99.90
13711;DHT22;6927;51.256;9.410;2023-01-16T06:19:05;4.30;99.90
13711;DHT22;6927;51.256;9.410;2023-01-16T06:21:31;4.20;99.90
13711;DHT22;6927;51.256;9.410;2023-01-16T06:23:56;4.20;99.90
13711;DHT22;6927;51.256;9.410;2023-01-16T06:26:22;4.20;99.90
13711;DHT22;6927;51.256;9.410;2023-01-16T06:28:50;4.20;99.90
13711;DHT22;6927;51.256;9.410;2023-01-16T06:31:16;4.20;99.90
13711;DHT22;6927;51.256;9.410;2023-01-16T06:33:42;4.10;99.90
13711;DHT22;6927;51.256;9.410;2023-01-16T06:36:10;4.20;99.90
13711;DHT22;6927;51.256;9.410;2023-01-16T06:38:36;4.20;99.90
13711;DHT22;6927;51.256;9.410;2023-01-16T06:41:07;4.20;99.90
13711;DHT22;6927;51.256;9.410;2023-01-16T06:43:33;4.20;99.90
13711;DHT22;6927;51.256;9.410;2023-01-16T06:46:02;4.20;99.90
13711;DHT22;6927;51.256;9.410;2023-01-16T06:48:33;4.20;99.90
13711;DHT22;6927;51.256;9.410;2023-01-16T06:51:03;4.20;99.90
13711;DHT22;6927;51.256;9.410;2023-01-16T06:53:31;4.30;99.90
13711;DHT22;6927;51.256;9.410;2023-01-16T06:56:00;4.30;99.90
13711;DHT22;6927;51.256;9.410;2023-01-16T06:58:28;4.30;99.90
13711;DHT22;6927;51.256;9.410;2023-01-16T07:00:57;4.30;99.90
13711;DHT22;6927;51.256;9.410;2023-01-16T07:03:23;4.30;99.90
13711;DHT22;6927;51.256;9.410;2023-01-16T07:05:56;4.40;99.90
13711;DHT22;6927;51.256;9.410;2023-01-16T07:08:22;4.40;99.90
13711;DHT22;6927;51.256;9.410;2023-01-16T07:11:10;4.40;99.90
13711;DHT22;6927;51.256;9.410;2023-01-16T07:13:36;4.40;99.90
13711;DHT22;6927;51.256;9.410;2023-01-16T07:16:14;4.40;99.90
13711;DHT22;6927;51.256;9.410;2023-01-16T07:19:16;4.40;99.90
13711;DHT22;6927;51.256;9.410;2023-01-16T07:22:03;4.50;99.90
13711;DHT22;6927;51.256;9.410;2023-01-16T07:24:50;4.50;99.90
13711;DHT22;6927;51.256;9.410;2023-01-16T07:27:19;4.50;99.90
13711;DHT22;6927;51.256;9.410;2023-01-16T07:30:04;4.50;99.90
13711;DHT22;6927;51.256;9.410;2023-01-16T07:32:35;4.50;99.90
13711;DHT22;6927;51.256;9.410;2023-01-16T07:35:14;4.50;99.90
13711;DHT22;6927;51.256;9.410;2023-01-16T07:37:46;4.50;99.90
13711;DHT22;6927;51.256;9.410;2023-01-16T07:40:19;4.60;99.90
13711;DHT22;6927;51.256;9.410;2023-01-16T07:42:45;4.60;99.90
13711;DHT22;6927;51.256;9.410;2023-01-16T07:45:10;4.60;99.90
13711;DHT22;6927;51.256;9.410;2023-01-16T07:47:36;4.50;99.90
13711;DHT22;6927;51.256;9.410;2023-01-16T07:50:02;4.50;99.90
13711;DHT22;6927;51.256;9.410;2023-01-16T08:33:51;4.30;99.90
13711;DHT22;6927;51.256;9.410;2023-01-16T08:36:26;4.30;99.90
13711;DHT22;6927;51.256;9.410;2023-01-16T08:39:14;4.40;99.90
13711;DHT22;6927;51.256;9.410;2023-01-16T08:41:39;4.40;99.90
13711;DHT22;6927;51.256;9.410;2023-01-16T08:44:26;4.40;99.90
13711;DHT22;6927;51.256;9.410;2023-01-16T08:47:34;4.50;99.90
13711;DHT22;6927;51.256;9.410;2023-01-16T08:50:20;4.50;99.90
13711;DHT22;6927;51.256;9.410;2023-01-16T08:53:24;4.50;99.90
13711;DHT22;6927;51.256;9.410;2023-01-16T08:55:59;4.60;99.90
13711;DHT22;6927;51.256;9.410;2023-01-16T08:58:36;4.80;99.90
13711;DHT22;6927;51.256;9.410;2023-01-16T09:01:07;4.90;99.90
13711;DHT22;6927;51.256;9.410;2023-01-16T09:03:39;4.90;99.90
13711;DHT22;6927;51.256;9.410;2023-01-16T09:06:13;4.90;99.90
13711;DHT22;6927;51.256;9.410;2023-01-16T09:08:44;4.90;99.90
13711;DHT22;6927;51.256;9.410;2023-01-16T09:11:24;4.90;99.90
13711;DHT22;6927;51.256;9.410;2023-01-16T09:14:14;5.00;99.90
13711;DHT22;6927;51.256;9.410;2023-01-16T09:17:09;5.10;99.90
13711;DHT22;6927;51.256;9.410;2023-01-16T09:19:53;5.10;99.90
13711;DHT22;6927;51.256;9.410;2023-01-16T09:22:22;5.20;99.90
13711;DHT22;6927;51.256;9.410;2023-01-16T09:24:48;5.20;99.90
13711;DHT22;6927;51.256;9.410;2023-01-16T09:27:23;5.30;99.90
13711;DHT22;6927;51.256;9.410;2023-01-16T09:29:52;5.40;99.90
13711;DHT22;6927;51.256;9.410;2023-01-16T09:32:27;5.50;99.90
13711;DHT22;6927;51.256;9.410;2023-01-16T09:34:56;5.80;99.90
13711;DHT22;6927;51.256;9.410;2023-01-16T09:37:25;6.00;99.90
13711;DHT22;6927;51.256;9.410;2023-01-16T09:40:03;6.20;99.90
13711;DHT22;6927;51.256;9.410;2023-01-16T09:42:55;6.30;99.90
13711;DHT22;6927;51.256;9.410;2023-01-16T09:45:42;6.40;99.90
13711;DHT22;6927;51.256;9.410;2023-01-16T09:48:30;6.20;99.90
13711;DHT22;6927;51.256;9.410;2023-01-16T09:51:04;5.90;99.90
13711;DHT22;6927;51.256;9.410;2023-01-16T09:54:08;6.00;99.90
13711;DHT22;6927;51.256;9.410;2023-01-16T09:56:47;5.90;99.90
13711;DHT22;6927;51.256;9.410;2023-01-16T09:59:47;5.90;99.90
13711;DHT22;6927;51.256;9.410;2023-01-16T10:02:28;5.90;99.90
13711;DHT22;6927;51.256;9.410;2023-01-16T10:04:59;5.80;99.90
13711;DHT22;6927;51.256;9.410;2023-01-16T10:10:52;5.70;99.90
13711;DHT22;6927;51.256;9.410;2023-01-16T10:14:01;5.60;99.90
13711;DHT22;6927;51.256;9.410;2023-01-16T10:16:58;5.60;99.90
13711;DHT22;6927;51.256;9.410;2023-01-16T11:00:37;5.40;99.90
13711;DHT22;6927;51.256;9.410;2023-01-16T11:03:35;5.20;99.90
13711;DHT22;6927;51.256;9.410;2023-01-16T11:06:08;5.20;99.90
13711;DHT22;6927;51.256;9.410;2023-01-16T11:08:40;5.10;99.90
13711;DHT22;6927;51.256;9.410;2023-01-16T11:11:06;5.20;99.90
13711;DHT22;6927;51.256;9.410;2023-01-16T11:13:52;5.10;99.90
13711;DHT22;6927;51.256;9.410;2023-01-16T11:16:36;5.10;99.90
13711;DHT22;6927;51.256;9.410;2023-01-16T11:19:25;5.10;99.90
13711;DHT22;6927;51.256;9.410;2023-01-16T11:22:00;5.10;99.90
13711;DHT22;6927;51.256;9.410;2023-01-16T11:24:39;5.10;99.90
13711;DHT22;6927;51.256;9.410;2023-01-16T11:27:22;5.10;99.90
13711;DHT22;6927;51.256;9.410;2023-01-16T11:29:54;5.00;99.90
13711;DHT22;6927;51.256;9.410;2023-01-16T11:32:24;4.90;99.90
13711;DHT22;6927;51.256;9.410;2023-01-16T11:34:59;4.80;99.90
13711;DHT22;6927;51.256;9.410;2023-01-16T11:37:30;4.90;99.90
13711;DHT22;6927;51.256;9.410;2023-01-16T11:40:02;4.90;99.90
13711;DHT22;6927;51.256;9.410;2023-01-16T11:42:33;4.90;99.90
13711;DHT22;6927;51.256;9.410;2023-01-16T11:45:19;4.90;99.90
13711;DHT22;6927;51.256;9.410;2023-01-16T11:48:06;5.00;99.90
13711;DHT22;6927;51.256;9.410;2023-01-16T11:50:59;4.90;99.90
13711;DHT22;6927;51.256;9.410;2023-01-16T11:53:33;4.90;99.90
13711;DHT22;6927;51.256;9.410;2023-01-16T12:04:53;4.60;99.90
13711;DHT22;6927;51.256;9.410;2023-01-16T12:07:45;4.60;99.90
13711;DHT22;6927;51.256;9.410;2023-01-16T12:10:46;4.50;99.90
13711;DHT22;6927;51.256;9.410;2023-01-16T12:31:48;4.20;99.90
13711;DHT22;6927;51.256;9.410;2023-01-16T12:37:36;4.10;99.90
13711;DHT22;6927;51.256;9.410;2023-01-16T12:40:41;4.00;99.90
13711;DHT22;6927;51.256;9.410;2023-01-16T12:46:11;4.00;99.90
13711;DHT22;6927;51.256;9.410;2023-01-16T12:51:48;3.90;99.90
13711;DHT22;6927;51.256;9.410;2023-01-16T12:57:37;3.90;99.90
13711;DHT22;6927;51.256;9.410;2023-01-16T13:00:15;3.80;99.90
13711;DHT22;6927;51.256;9.410;2023-01-16T13:05:56;3.70;99.90
13711;DHT22;6927;51.256;9.410;2023-01-16T13:08:33;3.70;99.90
13711;DHT22;6927;51.256;9.410;2023-01-16T13:14:28;3.80;99.90
13711;DHT22;6927;51.256;9.410;2023-01-16T13:17:17;3.70;99.90
13711;DHT22;6927;51.256;9.410;2023-01-16T13:20:04;3.70;99.90
13711;DHT22;6927;51.256;9.410;2023-01-16T13:22:38;3.80;99.90
13711;DHT22;6927;51.256;9.410;2023-01-16T13:25:45;3.80;99.90
13711;DHT22;6927;51.256;9.410;2023-01-16T13:28:25;3.80;99.90
13711;DHT22;6927;51.256;9.410;2023-01-16T13:31:03;3.80;99.90
13711;DHT22;6927;51.256;9.410;2023-01-16T13:33:41;3.80;99.90
13711;DHT22;6927;51.256;9.410;2023-01-16T13:36:52;3.80;99.90
13711;DHT22;6927;51.256;9.410;2023-01-16T14:11:01;4.00;99.90
13711;DHT22;6927;51.256;9.410;2023-01-16T14:13:34;4.00;99.90
13711;DHT22;6927;51.256;9.410;2023-01-16T14:19:22;4.00;99.90
13711;DHT22;6927;51.256;9.410;2023-01-16T14:22:18;4.10;99.90
13711;DHT22;6927;51.256;9.410;2023-01-16T14:24:59;4.10;99.90
13711;DHT22;6927;51.256;9.410;2023-01-16T14:27:41;4.10;99.90
13711;DHT22;6927;51.256;9.410;2023-01-16T14:30:31;4.20;99.90
13711;DHT22;6927;51.256;9.410;2023-01-16T14:33:16;4.20;99.90
13711;DHT22;6927;51.256;9.410;2023-01-16T14:36:00;4.20;99.90
13711;DHT22;6927;51.256;9.410;2023-01-16T14:38:33;4.20;99.90
13711;DHT22;6927;51.256;9.410;2023-01-16T14:41:31;4.20;99.90
13711;DHT22;6927;51.256;9.410;2023-01-16T14:44:21;4.30;99.90
13711;DHT22;6927;51.256;9.410;2023-01-16T14:47:44;4.20;99.90
13711;DHT22;6927;51.256;9.410;2023-01-16T14:50:51;4.30;99.90
13711;DHT22;6927;51.256;9.410;2023-01-16T14:53:41;4.30;99.90
13711;DHT22;6927;51.256;9.410;2023-01-16T14:56:41;4.30;99.90
13711;DHT22;6927;51.256;9.410;2023-01-16T14:59:25;4.30;99.90
13711;DHT22;6927;51.256;9.410;2023-01-16T15:02:10;4.30;99.90
13711;DHT22;6927;51.256;9.410;2023-01-16T15:05:12;4.30;99.90
13711;DHT22;6927;51.256;9.410;2023-01-16T15:07:48;4.40;99.90
13711;DHT22;6927;51.256;9.410;2023-01-16T15:13:50;4.50;99.90
13711;DHT22;6927;51.256;9.410;2023-01-16T15:16:39;4.40;99.90
13711;DHT22;6927;51.256;9.410;2023-01-16T15:19:23;4.40;99.90
13711;DHT22;6927;51.256;9.410;2023-01-16T15:22:42;4.40;99.90
13711;DHT22;6927;51.256;9.410;2023-01-16T15:25:35;4.50;99.90
13711;DHT22;6927;51.256;9.410;2023-01-16T15:30:52;4.50;99.90
13711;DHT22;6927;51.256;9.410;2023-01-16T15:33:29;4.50;99.90
13711;DHT22;6927;51.256;9.410;2023-01-16T15:36:21;4.50;99.90
13711;DHT22;6927;51.256;9.410;2023-01-16T15:38:56;4.50;99.90
13711;DHT22;6927;51.256;9.410;2023-01-16T15:41:35;4.50;99.90
13711;DHT22;6927;51.256;9.410;2023-01-16T15:44:28;4.50;99.90
13711;DHT22;6927;51.256;9.410;2023-01-16T15:50:59;4.60;99.90
13711;DHT22;6927;51.256;9.410;2023-01-16T15:56:02;4.60;99.90
13711;DHT22;6927;51.256;9.410;2023-01-16T15:58:28;4.60;99.90
13711;DHT22;6927;51.256;9.410;2023-01-16T16:00:58;4.60;99.90
13711;DHT22;6927;51.256;9.410;2023-01-16T16:03:45;4.60;99.90
13711;DHT22;6927;51.256;9.410;2023-01-16T16:06:14;4.60;99.90
13711;DHT22;6927;51.256;9.410;2023-01-16T16:08:47;4.50;99.90
13711;DHT22;6927;51.256;9.410;2023-01-16T16:11:24;4.60;99.90
13711;DHT22;6927;51.256;9.410;2023-01-16T16:14:35;4.60;99.90
13711;DHT22;6927;51.256;9.410;2023-01-16T16:17:25;4.60;99.90
13711;DHT22;6927;51.256;9.410;2023-01-16T16:23:17;4.60;99.90
13711;DHT22;6927;51.256;9.410;2023-01-16T16:26:02;4.60;99.90
13711;DHT22;6927;51.256;9.410;2023-01-16T16:28:44;4.60;99.90
13711;DHT22;6927;51.256;9.410;2023-01-16T16:31:29;4.60;99.90
13711;DHT22;6927;51.256;9.410;2023-01-16T16:36:28;4.60;99.90
13711;DHT22;6927;51.256;9.410;2023-01-16T16:39:03;4.60;99.90
13711;DHT22;6927;51.256;9.410;2023-01-16T16:41:44;4.60;99.90
13711;DHT22;6927;51.256;9.410;2023-01-16T16:44:41;4.60;99.90
13711;DHT22;6927;51.256;9.410;2023-01-16T16:47:27;4.60;99.90
13711;DHT22;6927;51.256;9.410;2023-01-16T16:49:53;4.60;99.90
13711;DHT22;6927;51.256;9.410;2023-01-16T16:54:56;4.60;99.90
13711;DHT22;6927;51.256;9.410;2023-01-16T16:57:48;4.50;99.90
13711;DHT22;6927;51.256;9.410;2023-01-16T17:00:16;4.50;99.90
13711;DHT22;6927;51.256;9.410;2023-01-16T17:02:46;4.50;99.90
13711;DHT22;6927;51.256;9.410;2023-01-16T17:05:24;4.50;99.90
13711;DHT22;6927;51.256;9.410;2023-01-16T17:07:53;4.50;99.90
13711;DHT22;6927;51.256;9.410;2023-01-16T17:10:19;4.60;99.90
13711;DHT22;6927;51.256;9.410;2023-01-16T17:12:53;4.60;99.90
13711;DHT22;6927;51.256;9.410;2023-01-16T17:15:21;4.60;99.90
13711;DHT22;6927;51.256;9.410;2023-01-16T17:17:47;4.70;99.90
13711;DHT22;6927;51.256;9.410;2023-01-16T17:20:19;4.60;99.90
13711;DHT22;6927;51.256;9.410;2023-01-16T17:22:47;4.70;99.90
13711;DHT22;6927;51.256;9.410;2023-01-16T17:25:15;4.70;99.90
13711;DHT22;6927;51.256;9.410;2023-01-16T17:28:09;4.70;99.90
13711;DHT22;6927;51.256;9.410;2023-01-16T17:30:44;4.50;99.90
13711;DHT22;6927;51.256;9.410;2023-01-16T17:33:15;4.40;99.90
13711;DHT22;6927;51.256;9.410;2023-01-16T17:35:49;4.20;99.90
13711;DHT22;6927;51.256;9.410;2023-01-16T17:38:27;4.20;99.90
13711;DHT22;6927;51.256;9.410;2023-01-16T17:41:02;4.20;99.90
13711;DHT22;6927;51.256;9.410;2023-01-16T17:43:27;4.20;99.90
13711;DHT22;6927;51.256;9.410;2023-01-16T17:46:31;4.20;99.90
13711;DHT22;6927;51.256;9.410;2023-01-16T17:48:57;4.20;99.90
13711;DHT22;6927;51.256;9.410;2023-01-16T17:51:25;4.10;99.90
13711;DHT22;6927;51.256;9.410;2023-01-16T17:53:51;4.10;99.90
13711;DHT22;6927;51.256;9.410;2023-01-16T17:56:20;4.20;99.90
13711;DHT22;6927;51.256;9.410;2023-01-16T17:58:47;4.20;99.90
13711;DHT22;6927;51.256;9.410;2023-01-16T18:01:51;4.20;99.90
13711;DHT22;6927;51.256;9.410;2023-01-16T18:04:41;4.30;99.90
13711;DHT22;6927;51.256;9.410;2023-01-16T18:07:31;4.30;99.90
13711;DHT22;6927;51.256;9.410;2023-01-16T21:49:25;3.60;99.90
13711;DHT22;6927;51.256;9.410;2023-01-16T21:58:58;3.60;99.90
13711;DHT22;6927;51.256;9.410;2023-01-16T22:02:25;3.60;99.90
13711;DHT22;6927;51.256;9.410;2023-01-16T22:12:22;3.70;99.90
13711;DHT22;6927;51.256;9.410;2023-01-16T22:18:49;3.60;99.90
13711;DHT22;6927;51.256;9.410;2023-01-16T22:21:28;3.70;99.90
13711;DHT22;6927;51.256;9.410;2023-01-16T22:40:26;3.60;99.90
13711;DHT22;6927;51.256;9.410;2023-01-16T22:43:13;3.60;99.90
13711;DHT22;6927;51.256;9.410;2023-01-16T22:46:18;3.60;99.90
13711;DHT22;6927;51.256;9.410;2023-01-16T22:49:09;3.70;99.90
13711;DHT22;6927;51.256;9.410;2023-01-16T22:51:56;3.70;99.90
13711;DHT22;6927;51.256;9.410;2023-01-16T22:57:59;3.70;99.90
13711;DHT22;6927;51.256;9.410;2023-01-16T23:00:35;3.80;99.90
13711;DHT22;6927;51.256;9.410;2023-01-16T23:03:09;3.80;99.90
13711;DHT22;6927;51.256;9.410;2023-01-16T23:05:47;3.80;99.90
13711;DHT22;6927;51.256;9.410;2023-01-16T23:08:16;3.80;99.90
13711;DHT22;6927;51.256;9.410;2023-01-16T23:13:35;3.80;99.90
13711;DHT22;6927;51.256;9.410;2023-01-16T23:16:19;3.80;99.90
13711;DHT22;6927;51.256;9.410;2023-01-16T23:18:59;3.90;99.90
13711;DHT22;6927;51.256;9.410;2023-01-16T23:21:31;3.80;99.90
13711;DHT22;6927;51.256;9.410;2023-01-16T23:24:14;3.80;99.90
13711;DHT22;6927;51.256;9.410;2023-01-16T23:26:43;3.80;99.90
13711;DHT22;6927;51.256;9.410;2023-01-16T23:29:20;3.80;99.90
13711;DHT22;6927;51.256;9.410;2023-01-16T23:31:49;3.80;99.90
13711;DHT22;6927;51.256;9.410;2023-01-16T23:34:35;3.80;99.90
13711;DHT22;6927;51.256;9.410;2023-01-16T23:37:11;3.80;99.90
13711;DHT22;6927;51.256;9.410;2023-01-16T23:39:39;3.80;99.90
13711;DHT22;6927;51.256;9.410;2023-01-16T23:42:13;3.70;99.90
13711;DHT22;6927;51.256;9.410;2023-01-16T23:45:06;3.70;99.90
13711;DHT22;6927;51.256;9.410;2023-01-16T23:47:51;3.60;99.90
13711;DHT22;6927;51.256;9.410;2023-01-16T23:50:17;3.60;99.90
13711;DHT22;6927;51.256;9.410;2023-01-16T23:52:55;3.50;99.90
13711;DHT22;6927;51.256;9.410;2023-01-16T23:55:21;3.60;99.90
13711;DHT22;6927;51.256;9.410;2023-01-16T23:57:58;3.60;99.90
